sensor_id;sensor_type;location;lat;lon;timestamp;P1;durP1;ratioP1;P2;durP2;ratioP2
63499;SDS011;49654;51.142;14.924;2022-11-02T00:00:57;40.97;;;24.23;;
63499;SDS011;49654;51.142;14.924;2022-11-02T00:03:30;37.75;;;22.85;;
63499;SDS011;49654;51.142;14.924;2022-11-02T00:05:57;35.35;;;23.23;;
63499;SDS011;49654;51.142;14.924;2022-11-02T00:08:24;35.55;;;22.95;;
63499;SDS011;49654;51.142;14.924;2022-11-02T00:10:51;36.08;;;23.00;;
63499;SDS011;49654;51.142;14.924;2022-11-02T00:13:18;38.13;;;24.48;;
63499;SDS011;49654;51.142;14.924;2022-11-02T00:15:45;36.67;;;23.73;;
63499;SDS011;49654;51.142;14.924;2022-11-02T00:18:12;37.33;;;24.85;;
63499;SDS011;49654;51.142;14.924;2022-11-02T00:20:42;37.05;;;23.27;;
63499;SDS011;49654;51.142;14.924;2022-11-02T00:23:09;36.25;;;22.15;;
63499;SDS011;49654;51.142;14.924;2022-11-02T00:25:38;38.22;;;23.90;;
63499;SDS011;49654;51.142;14.924;2022-11-02T00:28:07;38.65;;;24.25;;
63499;SDS011;49654;51.142;14.924;2022-11-02T00:30:35;36.33;;;22.90;;
63499;SDS011;49654;51.142;14.924;2022-11-02T00:33:03;36.03;;;23.20;;
63499;SDS011;49654;51.142;14.924;2022-11-02T00:35:30;36.63;;;22.73;;
63499;SDS011;49654;51.142;14.924;2022-11-02T00:38:00;36.95;;;23.00;;
63499;SDS011;49654;51.142;14.924;2022-11-02T00:40:27;36.67;;;23.55;;
63499;SDS011;49654;51.142;14.924;2022-11-02T00:42:54;32.75;;;21.20;;
63499;SDS011;49654;51.142;14.924;2022-11-02T00:45:21;34.30;;;21.70;;
63499;SDS011;49654;51.142;14.924;2022-11-02T00:47:49;34.38;;;21.70;;
63499;SDS011;49654;51.142;14.924;2022-11-02T00:50:16;36.00;;;22.45;;
63499;SDS011;49654;51.142;14.924;2022-11-02T00:52:43;38.03;;;22.55;;
63499;SDS011;49654;51.142;14.924;2022-11-02T00:55:12;34.25;;;21.52;;
63499;SDS011;49654;51.142;14.924;2022-11-02T00:57:39;35.25;;;22.75;;
63499;SDS011;49654;51.142;14.924;2022-11-02T01:00:07;33.72;;;21.60;;
63499;SDS011;49654;51.142;14.924;2022-11-02T01:02:36;33.47;;;21.30;;
63499;SDS011;49654;51.142;14.924;2022-11-02T01:05:04;32.17;;;21.83;;
63499;SDS011;49654;51.142;14.924;2022-11-02T01:07:32;34.42;;;21.00;;
63499;SDS011;49654;51.142;14.924;2022-11-02T01:09:59;31.42;;;19.88;;
63499;SDS011;49654;51.142;14.924;2022-11-02T01:12:28;33.38;;;21.45;;
63499;SDS011;49654;51.142;14.924;2022-11-02T01:14:55;32.35;;;20.13;;
63499;SDS011;49654;51.142;14.924;2022-11-02T01:17:22;31.27;;;19.67;;
63499;SDS011;49654;51.142;14.924;2022-11-02T01:19:49;34.30;;;19.95;;
63499;SDS011;49654;51.142;14.924;2022-11-02T01:22:16;33.88;;;20.75;;
63499;SDS011;49654;51.142;14.924;2022-11-02T01:24:43;34.38;;;20.50;;
63499;SDS011;49654;51.142;14.924;2022-11-02T01:27:10;34.05;;;19.73;;
63499;SDS011;49654;51.142;14.924;2022-11-02T01:29:39;32.70;;;20.10;;
63499;SDS011;49654;51.142;14.924;2022-11-02T01:32:06;34.63;;;21.20;;
63499;SDS011;49654;51.142;14.924;2022-11-02T01:34:33;36.47;;;21.60;;
63499;SDS011;49654;51.142;14.924;2022-11-02T01:37:00;33.83;;;21.42;;
63499;SDS011;49654;51.142;14.924;2022-11-02T01:39:27;34.33;;;21.48;;
63499;SDS011;49654;51.142;14.924;2022-11-02T01:41:54;30.77;;;19.98;;
63499;SDS011;49654;51.142;14.924;2022-11-02T01:44:24;28.45;;;19.58;;
63499;SDS011;49654;51.142;14.924;2022-11-02T01:46:55;32.97;;;20.67;;
63499;SDS011;49654;51.142;14.924;2022-11-02T01:49:25;32.05;;;20.45;;
63499;SDS011;49654;51.142;14.924;2022-11-02T01:51:54;31.85;;;19.95;;
63499;SDS011;49654;51.142;14.924;2022-11-02T01:54:26;33.53;;;20.40;;
63499;SDS011;49654;51.142;14.924;2022-11-02T01:57:03;29.92;;;19.90;;
63499;SDS011;49654;51.142;14.924;2022-11-02T01:59:32;27.70;;;19.55;;
63499;SDS011;49654;51.142;14.924;2022-11-02T02:02:04;31.40;;;19.83;;
63499;SDS011;49654;51.142;14.924;2022-11-02T02:04:41;29.92;;;19.08;;
63499;SDS011;49654;51.142;14.924;2022-11-02T02:07:09;28.85;;;20.05;;
63499;SDS011;49654;51.142;14.924;2022-11-02T02:09:38;32.67;;;20.85;;
63499;SDS011;49654;51.142;14.924;2022-11-02T02:12:06;33.38;;;20.48;;
63499;SDS011;49654;51.142;14.924;2022-11-02T02:14:34;32.30;;;19.42;;
63499;SDS011;49654;51.142;14.924;2022-11-02T02:17:08;32.50;;;19.85;;
63499;SDS011;49654;51.142;14.924;2022-11-02T02:19:43;31.38;;;20.25;;
63499;SDS011;49654;51.142;14.924;2022-11-02T02:22:22;29.73;;;19.67;;
63499;SDS011;49654;51.142;14.924;2022-11-02T02:25:20;34.35;;;21.13;;
63499;SDS011;49654;51.142;14.924;2022-11-02T02:27:57;31.13;;;21.40;;
63499;SDS011;49654;51.142;14.924;2022-11-02T02:30:33;34.38;;;20.67;;
63499;SDS011;49654;51.142;14.924;2022-11-02T02:33:08;30.42;;;19.40;;
63499;SDS011;49654;51.142;14.924;2022-11-02T02:35:40;26.02;;;18.17;;
63499;SDS011;49654;51.142;14.924;2022-11-02T02:38:13;29.77;;;19.23;;
63499;SDS011;49654;51.142;14.924;2022-11-02T02:40:44;29.08;;;18.55;;
63499;SDS011;49654;51.142;14.924;2022-11-02T02:43:19;30.27;;;19.02;;
63499;SDS011;49654;51.142;14.924;2022-11-02T02:45:57;28.52;;;18.17;;
63499;SDS011;49654;51.142;14.924;2022-11-02T02:48:26;30.50;;;19.65;;
63499;SDS011;49654;51.142;14.924;2022-11-02T02:50:55;31.48;;;19.33;;
63499;SDS011;49654;51.142;14.924;2022-11-02T02:53:28;30.85;;;19.30;;
63499;SDS011;49654;51.142;14.924;2022-11-02T02:55:59;35.03;;;20.55;;
63499;SDS011;49654;51.142;14.924;2022-11-02T02:58:31;29.38;;;18.50;;
63499;SDS011;49654;51.142;14.924;2022-11-02T03:01:04;32.70;;;18.98;;
63499;SDS011;49654;51.142;14.924;2022-11-02T03:03:32;33.60;;;19.63;;
63499;SDS011;49654;51.142;14.924;2022-11-02T03:06:04;32.70;;;19.85;;
63499;SDS011;49654;51.142;14.924;2022-11-02T03:08:40;33.38;;;19.80;;
63499;SDS011;49654;51.142;14.924;2022-11-02T03:11:12;30.80;;;18.13;;
63499;SDS011;49654;51.142;14.924;2022-11-02T03:13:46;26.73;;;17.23;;
63499;SDS011;49654;51.142;14.924;2022-11-02T03:16:30;24.85;;;16.35;;
63499;SDS011;49654;51.142;14.924;2022-11-02T03:19:10;25.60;;;16.73;;
63499;SDS011;49654;51.142;14.924;2022-11-02T03:21:46;25.55;;;16.58;;
63499;SDS011;49654;51.142;14.924;2022-11-02T03:24:21;26.77;;;17.45;;
63499;SDS011;49654;51.142;14.924;2022-11-02T03:26:55;27.13;;;17.83;;
63499;SDS011;49654;51.142;14.924;2022-11-02T03:29:37;29.20;;;18.55;;
63499;SDS011;49654;51.142;14.924;2022-11-02T03:32:09;27.98;;;18.52;;
63499;SDS011;49654;51.142;14.924;2022-11-02T03:34:42;31.83;;;19.13;;
63499;SDS011;49654;51.142;14.924;2022-11-02T03:37:13;31.55;;;18.23;;
63499;SDS011;49654;51.142;14.924;2022-11-02T03:39:46;30.20;;;18.92;;
63499;SDS011;49654;51.142;14.924;2022-11-02T03:42:16;31.90;;;19.55;;
63499;SDS011;49654;51.142;14.924;2022-11-02T03:44:48;33.35;;;19.35;;
63499;SDS011;49654;51.142;14.924;2022-11-02T03:47:20;31.77;;;18.92;;
63499;SDS011;49654;51.142;14.924;2022-11-02T03:49:49;33.50;;;20.02;;
63499;SDS011;49654;51.142;14.924;2022-11-02T03:52:20;32.97;;;20.40;;
63499;SDS011;49654;51.142;14.924;2022-11-02T03:54:52;32.45;;;20.17;;
63499;SDS011;49654;51.142;14.924;2022-11-02T03:57:26;34.22;;;19.55;;
63499;SDS011;49654;51.142;14.924;2022-11-02T04:00:06;33.08;;;19.73;;
63499;SDS011;49654;51.142;14.924;2022-11-02T04:02:34;35.45;;;19.13;;
63499;SDS011;49654;51.142;14.924;2022-11-02T04:05:03;34.65;;;20.50;;
63499;SDS011;49654;51.142;14.924;2022-11-02T04:07:31;29.65;;;18.83;;
63499;SDS011;49654;51.142;14.924;2022-11-02T04:10:20;34.95;;;20.80;;
63499;SDS011;49654;51.142;14.924;2022-11-02T04:12:47;30.48;;;19.20;;
63499;SDS011;49654;51.142;14.924;2022-11-02T04:15:32;30.77;;;18.48;;
63499;SDS011;49654;51.142;14.924;2022-11-02T04:17:59;31.45;;;19.00;;
63499;SDS011;49654;51.142;14.924;2022-11-02T04:20:47;31.30;;;18.80;;
63499;SDS011;49654;51.142;14.924;2022-11-02T04:23:15;27.23;;;17.45;;
63499;SDS011;49654;51.142;14.924;2022-11-02T04:26:00;28.15;;;18.13;;
63499;SDS011;49654;51.142;14.924;2022-11-02T04:28:27;32.22;;;18.73;;
63499;SDS011;49654;51.142;14.924;2022-11-02T04:30:57;29.33;;;18.08;;
63499;SDS011;49654;51.142;14.924;2022-11-02T04:33:25;28.13;;;17.67;;
63499;SDS011;49654;51.142;14.924;2022-11-02T04:35:58;31.63;;;18.63;;
63499;SDS011;49654;51.142;14.924;2022-11-02T04:38:26;30.63;;;17.73;;
63499;SDS011;49654;51.142;14.924;2022-11-02T04:41:08;28.33;;;17.35;;
63499;SDS011;49654;51.142;14.924;2022-11-02T04:43:53;27.67;;;16.20;;
63499;SDS011;49654;51.142;14.924;2022-11-02T04:46:22;28.83;;;17.05;;
63499;SDS011;49654;51.142;14.924;2022-11-02T04:48:51;30.85;;;17.30;;
63499;SDS011;49654;51.142;14.924;2022-11-02T04:51:18;27.77;;;16.77;;
63499;SDS011;49654;51.142;14.924;2022-11-02T04:53:46;30.52;;;17.92;;
63499;SDS011;49654;51.142;14.924;2022-11-02T04:56:14;30.58;;;18.65;;
63499;SDS011;49654;51.142;14.924;2022-11-02T04:58:41;28.55;;;17.65;;
63499;SDS011;49654;51.142;14.924;2022-11-02T05:01:10;26.05;;;16.45;;
63499;SDS011;49654;51.142;14.924;2022-11-02T05:03:41;28.98;;;17.40;;
63499;SDS011;49654;51.142;14.924;2022-11-02T05:06:08;29.92;;;17.52;;
63499;SDS011;49654;51.142;14.924;2022-11-02T05:08:36;29.92;;;16.92;;
63499;SDS011;49654;51.142;14.924;2022-11-02T05:11:04;32.10;;;18.40;;
63499;SDS011;49654;51.142;14.924;2022-11-02T05:13:31;31.30;;;17.98;;
63499;SDS011;49654;51.142;14.924;2022-11-02T05:15:58;31.88;;;17.63;;
63499;SDS011;49654;51.142;14.924;2022-11-02T05:18:26;30.75;;;18.08;;
63499;SDS011;49654;51.142;14.924;2022-11-02T05:20:55;29.90;;;17.35;;
63499;SDS011;49654;51.142;14.924;2022-11-02T05:23:23;31.58;;;17.77;;
63499;SDS011;49654;51.142;14.924;2022-11-02T05:25:51;27.00;;;17.08;;
63499;SDS011;49654;51.142;14.924;2022-11-02T05:28:19;30.88;;;16.30;;
63499;SDS011;49654;51.142;14.924;2022-11-02T05:30:46;29.52;;;16.50;;
63499;SDS011;49654;51.142;14.924;2022-11-02T05:33:13;28.05;;;16.73;;
63499;SDS011;49654;51.142;14.924;2022-11-02T05:35:40;26.42;;;16.13;;
63499;SDS011;49654;51.142;14.924;2022-11-02T05:38:09;27.73;;;16.85;;
63499;SDS011;49654;51.142;14.924;2022-11-02T05:40:37;27.85;;;16.90;;
63499;SDS011;49654;51.142;14.924;2022-11-02T05:43:05;29.73;;;16.08;;
63499;SDS011;49654;51.142;14.924;2022-11-02T05:45:34;28.38;;;16.65;;
63499;SDS011;49654;51.142;14.924;2022-11-02T05:48:01;30.00;;;18.42;;
63499;SDS011;49654;51.142;14.924;2022-11-02T05:50:31;28.45;;;15.98;;
63499;SDS011;49654;51.142;14.924;2022-11-02T05:52:58;28.50;;;17.25;;
63499;SDS011;49654;51.142;14.924;2022-11-02T05:55:27;30.83;;;18.05;;
63499;SDS011;49654;51.142;14.924;2022-11-02T05:57:54;32.55;;;17.95;;
63499;SDS011;49654;51.142;14.924;2022-11-02T06:00:21;35.35;;;19.17;;
63499;SDS011;49654;51.142;14.924;2022-11-02T06:02:52;34.42;;;18.17;;
63499;SDS011;49654;51.142;14.924;2022-11-02T06:05:21;34.50;;;19.70;;
63499;SDS011;49654;51.142;14.924;2022-11-02T06:07:49;33.70;;;20.05;;
63499;SDS011;49654;51.142;14.924;2022-11-02T06:10:16;33.85;;;19.65;;
63499;SDS011;49654;51.142;14.924;2022-11-02T06:12:45;35.88;;;19.80;;
63499;SDS011;49654;51.142;14.924;2022-11-02T06:15:12;36.28;;;19.75;;
63499;SDS011;49654;51.142;14.924;2022-11-02T06:17:39;37.53;;;20.65;;
63499;SDS011;49654;51.142;14.924;2022-11-02T06:20:07;36.05;;;19.95;;
63499;SDS011;49654;51.142;14.924;2022-11-02T06:22:38;36.33;;;19.77;;
63499;SDS011;49654;51.142;14.924;2022-11-02T06:25:05;37.22;;;20.27;;
63499;SDS011;49654;51.142;14.924;2022-11-02T06:27:33;36.22;;;20.73;;
63499;SDS011;49654;51.142;14.924;2022-11-02T06:30:02;37.80;;;20.90;;
63499;SDS011;49654;51.142;14.924;2022-11-02T06:32:30;41.58;;;21.83;;
63499;SDS011;49654;51.142;14.924;2022-11-02T06:34:57;45.35;;;22.67;;
63499;SDS011;49654;51.142;14.924;2022-11-02T06:37:24;40.30;;;21.38;;
63499;SDS011;49654;51.142;14.924;2022-11-02T06:39:51;40.20;;;22.58;;
63499;SDS011;49654;51.142;14.924;2022-11-02T06:42:18;39.97;;;21.00;;
63499;SDS011;49654;51.142;14.924;2022-11-02T06:44:45;37.95;;;20.88;;
63499;SDS011;49654;51.142;14.924;2022-11-02T06:47:14;39.03;;;21.27;;
63499;SDS011;49654;51.142;14.924;2022-11-02T06:49:41;43.00;;;22.10;;
63499;SDS011;49654;51.142;14.924;2022-11-02T06:52:08;41.33;;;22.38;;
63499;SDS011;49654;51.142;14.924;2022-11-02T06:54:35;43.30;;;23.23;;
63499;SDS011;49654;51.142;14.924;2022-11-02T06:57:02;44.13;;;23.73;;
63499;SDS011;49654;51.142;14.924;2022-11-02T06:59:29;40.55;;;22.23;;
63499;SDS011;49654;51.142;14.924;2022-11-02T07:01:56;41.85;;;22.65;;
63499;SDS011;49654;51.142;14.924;2022-11-02T07:04:24;43.85;;;22.65;;
63499;SDS011;49654;51.142;14.924;2022-11-02T07:06:51;42.10;;;22.33;;
63499;SDS011;49654;51.142;14.924;2022-11-02T07:09:18;39.78;;;21.92;;
63499;SDS011;49654;51.142;14.924;2022-11-02T07:11:45;37.75;;;21.48;;
63499;SDS011;49654;51.142;14.924;2022-11-02T07:14:12;39.08;;;21.33;;
63499;SDS011;49654;51.142;14.924;2022-11-02T07:16:39;40.25;;;22.38;;
63499;SDS011;49654;51.142;14.924;2022-11-02T07:19:06;42.47;;;22.95;;
63499;SDS011;49654;51.142;14.924;2022-11-02T07:21:35;41.30;;;22.55;;
63499;SDS011;49654;51.142;14.924;2022-11-02T07:24:03;39.05;;;22.50;;
63499;SDS011;49654;51.142;14.924;2022-11-02T07:26:30;41.90;;;22.30;;
63499;SDS011;49654;51.142;14.924;2022-11-02T07:28:58;43.67;;;22.08;;
63499;SDS011;49654;51.142;14.924;2022-11-02T07:31:25;39.05;;;21.15;;
63499;SDS011;49654;51.142;14.924;2022-11-02T07:33:52;37.70;;;21.90;;
63499;SDS011;49654;51.142;14.924;2022-11-02T07:36:19;37.60;;;22.02;;
63499;SDS011;49654;51.142;14.924;2022-11-02T07:38:47;38.30;;;22.23;;
63499;SDS011;49654;51.142;14.924;2022-11-02T07:41:14;42.58;;;22.33;;
63499;SDS011;49654;51.142;14.924;2022-11-02T07:43:41;38.10;;;22.10;;
63499;SDS011;49654;51.142;14.924;2022-11-02T07:46:08;39.20;;;22.00;;
63499;SDS011;49654;51.142;14.924;2022-11-02T07:48:36;37.53;;;21.23;;
63499;SDS011;49654;51.142;14.924;2022-11-02T07:51:03;34.67;;;19.80;;
63499;SDS011;49654;51.142;14.924;2022-11-02T07:53:30;34.42;;;20.77;;
63499;SDS011;49654;51.142;14.924;2022-11-02T07:55:59;32.78;;;20.00;;
63499;SDS011;49654;51.142;14.924;2022-11-02T07:58:28;30.42;;;19.50;;
63499;SDS011;49654;51.142;14.924;2022-11-02T08:00:56;35.15;;;20.38;;
63499;SDS011;49654;51.142;14.924;2022-11-02T08:03:24;33.03;;;19.33;;
63499;SDS011;49654;51.142;14.924;2022-11-02T08:05:51;33.53;;;19.90;;
63499;SDS011;49654;51.142;14.924;2022-11-02T08:08:19;32.47;;;20.02;;
63499;SDS011;49654;51.142;14.924;2022-11-02T08:10:48;33.05;;;20.33;;
63499;SDS011;49654;51.142;14.924;2022-11-02T08:13:17;28.23;;;18.73;;
63499;SDS011;49654;51.142;14.924;2022-11-02T08:15:47;26.88;;;17.90;;
63499;SDS011;49654;51.142;14.924;2022-11-02T08:18:16;26.92;;;17.15;;
63499;SDS011;49654;51.142;14.924;2022-11-02T08:20:44;22.40;;;15.60;;
63499;SDS011;49654;51.142;14.924;2022-11-02T08:23:12;23.60;;;15.98;;
63499;SDS011;49654;51.142;14.924;2022-11-02T08:25:41;24.50;;;16.85;;
63499;SDS011;49654;51.142;14.924;2022-11-02T08:28:11;22.33;;;15.35;;
63499;SDS011;49654;51.142;14.924;2022-11-02T08:30:41;24.40;;;15.93;;
63499;SDS011;49654;51.142;14.924;2022-11-02T08:33:09;21.85;;;14.43;;
63499;SDS011;49654;51.142;14.924;2022-11-02T08:35:38;20.98;;;13.93;;
63499;SDS011;49654;51.142;14.924;2022-11-02T08:38:05;20.80;;;14.90;;
63499;SDS011;49654;51.142;14.924;2022-11-02T08:40:33;21.10;;;13.90;;
63499;SDS011;49654;51.142;14.924;2022-11-02T08:43:01;20.45;;;13.50;;
63499;SDS011;49654;51.142;14.924;2022-11-02T08:45:30;20.25;;;14.05;;
63499;SDS011;49654;51.142;14.924;2022-11-02T08:48:00;18.20;;;13.50;;
63499;SDS011;49654;51.142;14.924;2022-11-02T08:50:27;20.35;;;14.30;;
63499;SDS011;49654;51.142;14.924;2022-11-02T08:52:54;23.02;;;14.00;;
63499;SDS011;49654;51.142;14.924;2022-11-02T08:55:21;20.38;;;14.02;;
63499;SDS011;49654;51.142;14.924;2022-11-02T08:57:49;17.77;;;12.40;;
63499;SDS011;49654;51.142;14.924;2022-11-02T09:00:17;19.40;;;12.35;;
63499;SDS011;49654;51.142;14.924;2022-11-02T09:02:56;19.00;;;12.48;;
63499;SDS011;49654;51.142;14.924;2022-11-02T09:05:26;19.95;;;12.25;;
63499;SDS011;49654;51.142;14.924;2022-11-02T09:07:54;19.00;;;13.07;;
63499;SDS011;49654;51.142;14.924;2022-11-02T09:10:22;16.15;;;11.45;;
63499;SDS011;49654;51.142;14.924;2022-11-02T09:12:49;20.05;;;12.15;;
63499;SDS011;49654;51.142;14.924;2022-11-02T09:15:16;17.17;;;11.15;;
63499;SDS011;49654;51.142;14.924;2022-11-02T09:17:45;16.25;;;11.80;;
63499;SDS011;49654;51.142;14.924;2022-11-02T09:20:13;15.45;;;9.65;;
63499;SDS011;49654;51.142;14.924;2022-11-02T09:22:42;16.45;;;10.52;;
63499;SDS011;49654;51.142;14.924;2022-11-02T09:25:10;17.50;;;9.95;;
63499;SDS011;49654;51.142;14.924;2022-11-02T09:27:38;14.73;;;10.10;;
63499;SDS011;49654;51.142;14.924;2022-11-02T09:30:06;14.50;;;9.70;;
63499;SDS011;49654;51.142;14.924;2022-11-02T09:32:34;16.23;;;9.98;;
63499;SDS011;49654;51.142;14.924;2022-11-02T09:35:02;14.35;;;10.52;;
63499;SDS011;49654;51.142;14.924;2022-11-02T09:37:34;16.83;;;9.40;;
63499;SDS011;49654;51.142;14.924;2022-11-02T09:40:03;14.60;;;9.52;;
63499;SDS011;49654;51.142;14.924;2022-11-02T09:42:33;15.50;;;8.88;;
63499;SDS011;49654;51.142;14.924;2022-11-02T09:45:11;15.40;;;8.63;;
63499;SDS011;49654;51.142;14.924;2022-11-02T09:47:41;15.60;;;9.25;;
63499;SDS011;49654;51.142;14.924;2022-11-02T09:50:12;16.70;;;9.07;;
63499;SDS011;49654;51.142;14.924;2022-11-02T09:52:44;17.17;;;9.02;;
63499;SDS011;49654;51.142;14.924;2022-11-02T09:55:18;12.60;;;8.40;;
63499;SDS011;49654;51.142;14.924;2022-11-02T09:57:52;17.30;;;9.15;;
63499;SDS011;49654;51.142;14.924;2022-11-02T10:00:25;13.98;;;8.80;;
63499;SDS011;49654;51.142;14.924;2022-11-02T10:02:59;16.13;;;8.48;;
63499;SDS011;49654;51.142;14.924;2022-11-02T10:05:35;13.05;;;6.57;;
63499;SDS011;49654;51.142;14.924;2022-11-02T10:08:16;13.43;;;6.25;;
63499;SDS011;49654;51.142;14.924;2022-11-02T10:10:57;12.40;;;6.70;;
63499;SDS011;49654;51.142;14.924;2022-11-02T10:13:33;13.93;;;6.40;;
63499;SDS011;49654;51.142;14.924;2022-11-02T10:16:07;13.30;;;6.30;;
63499;SDS011;49654;51.142;14.924;2022-11-02T10:18:39;11.13;;;6.05;;
63499;SDS011;49654;51.142;14.924;2022-11-02T10:21:09;13.10;;;6.70;;
63499;SDS011;49654;51.142;14.924;2022-11-02T10:23:39;11.02;;;6.05;;
63499;SDS011;49654;51.142;14.924;2022-11-02T10:26:13;12.77;;;6.57;;
63499;SDS011;49654;51.142;14.924;2022-11-02T10:28:45;10.45;;;5.05;;
63499;SDS011;49654;51.142;14.924;2022-11-02T10:31:18;15.98;;;6.35;;
63499;SDS011;49654;51.142;14.924;2022-11-02T10:33:51;11.10;;;5.78;;
63499;SDS011;49654;51.142;14.924;2022-11-02T10:36:24;13.35;;;5.82;;
63499;SDS011;49654;51.142;14.924;2022-11-02T10:39:05;10.80;;;5.72;;
63499;SDS011;49654;51.142;14.924;2022-11-02T10:41:49;12.90;;;6.75;;
63499;SDS011;49654;51.142;14.924;2022-11-02T10:44:30;12.77;;;6.43;;
63499;SDS011;49654;51.142;14.924;2022-11-02T10:47:08;13.80;;;5.78;;
63499;SDS011;49654;51.142;14.924;2022-11-02T10:49:48;10.93;;;6.60;;
63499;SDS011;49654;51.142;14.924;2022-11-02T10:52:40;11.50;;;6.15;;
63499;SDS011;49654;51.142;14.924;2022-11-02T10:55:12;12.20;;;6.07;;
63499;SDS011;49654;51.142;14.924;2022-11-02T10:57:47;14.98;;;6.50;;
63499;SDS011;49654;51.142;14.924;2022-11-02T11:00:21;11.70;;;5.60;;
63499;SDS011;49654;51.142;14.924;2022-11-02T11:03:01;13.25;;;6.30;;
63499;SDS011;49654;51.142;14.924;2022-11-02T11:05:33;13.02;;;6.57;;
63499;SDS011;49654;51.142;14.924;2022-11-02T11:08:02;14.02;;;7.00;;
63499;SDS011;49654;51.142;14.924;2022-11-02T11:10:34;13.85;;;6.65;;
63499;SDS011;49654;51.142;14.924;2022-11-02T11:13:05;13.15;;;7.00;;
63499;SDS011;49654;51.142;14.924;2022-11-02T11:15:40;17.30;;;7.55;;
63499;SDS011;49654;51.142;14.924;2022-11-02T11:18:09;16.20;;;7.07;;
63499;SDS011;49654;51.142;14.924;2022-11-02T11:20:39;11.95;;;6.38;;
63499;SDS011;49654;51.142;14.924;2022-11-02T11:23:08;12.40;;;6.80;;
63499;SDS011;49654;51.142;14.924;2022-11-02T11:25:52;14.88;;;6.85;;
63499;SDS011;49654;51.142;14.924;2022-11-02T11:28:22;12.27;;;7.22;;
63499;SDS011;49654;51.142;14.924;2022-11-02T11:31:00;14.05;;;8.02;;
63499;SDS011;49654;51.142;14.924;2022-11-02T11:33:31;13.65;;;7.57;;
63499;SDS011;49654;51.142;14.924;2022-11-02T11:35:59;14.07;;;7.88;;
63499;SDS011;49654;51.142;14.924;2022-11-02T11:38:26;13.55;;;7.78;;
63499;SDS011;49654;51.142;14.924;2022-11-02T11:40:54;12.68;;;7.65;;
63499;SDS011;49654;51.142;14.924;2022-11-02T11:43:26;14.60;;;8.05;;
63499;SDS011;49654;51.142;14.924;2022-11-02T11:45:55;14.93;;;7.93;;
63499;SDS011;49654;51.142;14.924;2022-11-02T11:48:26;12.10;;;8.02;;
63499;SDS011;49654;51.142;14.924;2022-11-02T11:51:00;11.35;;;7.22;;
63499;SDS011;49654;51.142;14.924;2022-11-02T11:53:29;15.82;;;8.25;;
63499;SDS011;49654;51.142;14.924;2022-11-02T11:55:57;15.85;;;7.97;;
63499;SDS011;49654;51.142;14.924;2022-11-02T11:58:27;13.77;;;8.20;;
63499;SDS011;49654;51.142;14.924;2022-11-02T12:01:03;14.75;;;7.57;;
63499;SDS011;49654;51.142;14.924;2022-11-02T12:03:32;15.45;;;7.65;;
63499;SDS011;49654;51.142;14.924;2022-11-02T12:06:15;12.18;;;7.47;;
63499;SDS011;49654;51.142;14.924;2022-11-02T12:08:49;12.00;;;8.10;;
63499;SDS011;49654;51.142;14.924;2022-11-02T12:11:29;14.15;;;7.03;;
63499;SDS011;49654;51.142;14.924;2022-11-02T12:14:12;15.05;;;7.32;;
63499;SDS011;49654;51.142;14.924;2022-11-02T12:16:55;17.50;;;7.80;;
63499;SDS011;49654;51.142;14.924;2022-11-02T12:19:50;13.98;;;7.30;;
63499;SDS011;49654;51.142;14.924;2022-11-02T12:22:29;12.43;;;6.93;;
63499;SDS011;49654;51.142;14.924;2022-11-02T12:25:10;13.95;;;6.90;;
63499;SDS011;49654;51.142;14.924;2022-11-02T12:27:46;15.80;;;7.15;;
63499;SDS011;49654;51.142;14.924;2022-11-02T12:30:25;12.10;;;6.43;;
63499;SDS011;49654;51.142;14.924;2022-11-02T12:33:09;10.82;;;6.35;;
63499;SDS011;49654;51.142;14.924;2022-11-02T12:35:55;12.77;;;5.85;;
63499;SDS011;49654;51.142;14.924;2022-11-02T12:41:20;11.90;;;5.20;;
63499;SDS011;49654;51.142;14.924;2022-11-02T12:43:57;11.63;;;5.57;;
63499;SDS011;49654;51.142;14.924;2022-11-02T12:46:40;10.40;;;5.50;;
63499;SDS011;49654;51.142;14.924;2022-11-02T12:49:18;12.65;;;6.15;;
63499;SDS011;49654;51.142;14.924;2022-11-02T12:51:58;11.80;;;6.35;;
63499;SDS011;49654;51.142;14.924;2022-11-02T12:54:35;12.20;;;6.50;;
63499;SDS011;49654;51.142;14.924;2022-11-02T12:57:09;11.25;;;5.80;;
63499;SDS011;49654;51.142;14.924;2022-11-02T12:59:40;12.10;;;5.88;;
63499;SDS011;49654;51.142;14.924;2022-11-02T13:02:11;11.38;;;5.60;;
63499;SDS011;49654;51.142;14.924;2022-11-02T13:04:45;11.40;;;5.30;;
63499;SDS011;49654;51.142;14.924;2022-11-02T13:07:16;11.98;;;6.65;;
63499;SDS011;49654;51.142;14.924;2022-11-02T13:09:49;11.32;;;5.72;;
63499;SDS011;49654;51.142;14.924;2022-11-02T13:12:20;10.90;;;5.72;;
63499;SDS011;49654;51.142;14.924;2022-11-02T13:14:50;12.55;;;5.65;;
63499;SDS011;49654;51.142;14.924;2022-11-02T13:17:22;12.65;;;5.65;;
63499;SDS011;49654;51.142;14.924;2022-11-02T13:19:53;12.80;;;5.30;;
63499;SDS011;49654;51.142;14.924;2022-11-02T13:22:24;12.55;;;5.28;;
63499;SDS011;49654;51.142;14.924;2022-11-02T13:24:56;15.13;;;5.97;;
63499;SDS011;49654;51.142;14.924;2022-11-02T13:27:32;10.57;;;5.63;;
63499;SDS011;49654;51.142;14.924;2022-11-02T13:30:02;11.65;;;5.43;;
63499;SDS011;49654;51.142;14.924;2022-11-02T13:32:33;11.85;;;5.32;;
63499;SDS011;49654;51.142;14.924;2022-11-02T13:35:12;12.50;;;5.10;;
63499;SDS011;49654;51.142;14.924;2022-11-02T13:37:44;10.48;;;5.30;;
63499;SDS011;49654;51.142;14.924;2022-11-02T13:40:17;11.93;;;5.20;;
63499;SDS011;49654;51.142;14.924;2022-11-02T13:45:53;11.05;;;4.60;;
63499;SDS011;49654;51.142;14.924;2022-11-02T13:48:37;8.13;;;4.53;;
63499;SDS011;49654;51.142;14.924;2022-11-02T13:51:07;10.57;;;4.90;;
63499;SDS011;49654;51.142;14.924;2022-11-02T13:53:43;12.55;;;4.90;;
63499;SDS011;49654;51.142;14.924;2022-11-02T13:56:22;9.10;;;4.53;;
63499;SDS011;49654;51.142;14.924;2022-11-02T13:58:53;8.38;;;4.75;;
63499;SDS011;49654;51.142;14.924;2022-11-02T14:01:23;10.50;;;4.85;;
63499;SDS011;49654;51.142;14.924;2022-11-02T14:03:54;8.00;;;4.55;;
63499;SDS011;49654;51.142;14.924;2022-11-02T14:06:23;9.35;;;4.80;;
63499;SDS011;49654;51.142;14.924;2022-11-02T14:08:52;10.40;;;4.80;;
63499;SDS011;49654;51.142;14.924;2022-11-02T14:11:32;8.77;;;4.38;;
63499;SDS011;49654;51.142;14.924;2022-11-02T14:16:58;9.30;;;4.53;;
63499;SDS011;49654;51.142;14.924;2022-11-02T14:19:53;6.13;;;3.35;;
63499;SDS011;49654;51.142;14.924;2022-11-02T14:22:22;7.97;;;3.25;;
63499;SDS011;49654;51.142;14.924;2022-11-02T14:24:53;8.98;;;2.80;;
63499;SDS011;49654;51.142;14.924;2022-11-02T14:27:27;7.38;;;2.53;;
63499;SDS011;49654;51.142;14.924;2022-11-02T14:29:55;8.93;;;2.38;;
63499;SDS011;49654;51.142;14.924;2022-11-02T14:35:28;9.10;;;2.85;;
63499;SDS011;49654;51.142;14.924;2022-11-02T14:41:19;5.15;;;1.75;;
63499;SDS011;49654;51.142;14.924;2022-11-02T14:44:02;5.88;;;2.03;;
63499;SDS011;49654;51.142;14.924;2022-11-02T14:46:48;7.00;;;1.73;;
63499;SDS011;49654;51.142;14.924;2022-11-02T14:49:23;5.65;;;1.90;;
63499;SDS011;49654;51.142;14.924;2022-11-02T14:51:55;7.65;;;2.13;;